sensor_id;sensor_type;location;lat;lon;timestamp;P1;durP1;ratioP1;P2;durP2;ratioP2
17251;SDS011;8742;51.716;8.790;2022-12-18T00:00:44;6.93;;;3.43;;
17251;SDS011;8742;51.716;8.790;2022-12-18T00:03:11;9.10;;;3.90;;
17251;SDS011;8742;51.716;8.790;2022-12-18T00:05:45;8.70;;;3.50;;
17251;SDS011;8742;51.716;8.790;2022-12-18T00:08:12;10.53;;;3.27;;
17251;SDS011;8742;51.716;8.790;2022-12-18T00:10:39;6.97;;;3.70;;
17251;SDS011;8742;51.716;8.790;2022-12-18T00:13:06;11.90;;;3.93;;
17251;SDS011;8742;51.716;8.790;2022-12-18T00:15:34;12.90;;;4.03;;
17251;SDS011;8742;51.716;8.790;2022-12-18T00:18:01;10.27;;;2.97;;
17251;SDS011;8742;51.716;8.790;2022-12-18T00:20:28;7.60;;;3.30;;
17251;SDS011;8742;51.716;8.790;2022-12-18T00:22:55;8.07;;;3.50;;
17251;SDS011;8742;51.716;8.790;2022-12-18T00:25:22;10.67;;;3.70;;
17251;SDS011;8742;51.716;8.790;2022-12-18T00:27:49;7.93;;;3.73;;
17251;SDS011;8742;51.716;8.790;2022-12-18T00:30:22;4.80;;;2.77;;
17251;SDS011;8742;51.716;8.790;2022-12-18T00:32:50;5.60;;;3.23;;
17251;SDS011;8742;51.716;8.790;2022-12-18T00:35:17;10.33;;;3.30;;
17251;SDS011;8742;51.716;8.790;2022-12-18T00:37:44;7.90;;;3.73;;
17251;SDS011;8742;51.716;8.790;2022-12-18T00:40:11;7.10;;;3.40;;
17251;SDS011;8742;51.716;8.790;2022-12-18T00:42:38;4.73;;;3.27;;
17251;SDS011;8742;51.716;8.790;2022-12-18T00:45:22;5.50;;;3.30;;
17251;SDS011;8742;51.716;8.790;2022-12-18T00:47:51;6.57;;;3.17;;
17251;SDS011;8742;51.716;8.790;2022-12-18T00:50:18;6.53;;;3.17;;
17251;SDS011;8742;51.716;8.790;2022-12-18T00:52:45;6.63;;;3.60;;
17251;SDS011;8742;51.716;8.790;2022-12-18T00:55:12;6.73;;;3.33;;
17251;SDS011;8742;51.716;8.790;2022-12-18T00:57:40;5.37;;;3.20;;
17251;SDS011;8742;51.716;8.790;2022-12-18T01:00:08;5.77;;;2.90;;
17251;SDS011;8742;51.716;8.790;2022-12-18T01:02:38;9.33;;;3.67;;
17251;SDS011;8742;51.716;8.790;2022-12-18T01:05:07;5.70;;;2.90;;
17251;SDS011;8742;51.716;8.790;2022-12-18T01:07:35;6.67;;;3.27;;
17251;SDS011;8742;51.716;8.790;2022-12-18T01:10:02;6.40;;;3.27;;
17251;SDS011;8742;51.716;8.790;2022-12-18T01:12:30;8.10;;;3.60;;
17251;SDS011;8742;51.716;8.790;2022-12-18T01:14:57;7.33;;;2.90;;
17251;SDS011;8742;51.716;8.790;2022-12-18T01:17:24;6.00;;;3.30;;
17251;SDS011;8742;51.716;8.790;2022-12-18T01:19:51;5.57;;;3.20;;
17251;SDS011;8742;51.716;8.790;2022-12-18T01:22:19;4.50;;;3.03;;
17251;SDS011;8742;51.716;8.790;2022-12-18T01:24:46;5.10;;;2.20;;
17251;SDS011;8742;51.716;8.790;2022-12-18T01:27:12;6.20;;;2.73;;
17251;SDS011;8742;51.716;8.790;2022-12-18T01:29:39;5.33;;;2.70;;
17251;SDS011;8742;51.716;8.790;2022-12-18T01:32:06;6.43;;;3.17;;
17251;SDS011;8742;51.716;8.790;2022-12-18T01:34:34;4.83;;;2.50;;
17251;SDS011;8742;51.716;8.790;2022-12-18T01:37:02;5.43;;;2.90;;
17251;SDS011;8742;51.716;8.790;2022-12-18T01:39:31;3.23;;;1.70;;
17251;SDS011;8742;51.716;8.790;2022-12-18T01:41:58;6.23;;;2.83;;
17251;SDS011;8742;51.716;8.790;2022-12-18T01:44:52;7.17;;;2.87;;
17251;SDS011;8742;51.716;8.790;2022-12-18T01:47:22;6.70;;;3.37;;
17251;SDS011;8742;51.716;8.790;2022-12-18T01:49:51;2.27;;;1.77;;
17251;SDS011;8742;51.716;8.790;2022-12-18T01:52:19;5.47;;;3.30;;
17251;SDS011;8742;51.716;8.790;2022-12-18T01:54:49;9.13;;;3.23;;
17251;SDS011;8742;51.716;8.790;2022-12-18T01:57:18;2.93;;;2.03;;
17251;SDS011;8742;51.716;8.790;2022-12-18T01:59:45;6.37;;;3.17;;
17251;SDS011;8742;51.716;8.790;2022-12-18T02:02:17;4.50;;;1.83;;
17251;SDS011;8742;51.716;8.790;2022-12-18T02:04:46;10.47;;;3.27;;
17251;SDS011;8742;51.716;8.790;2022-12-18T02:07:14;6.07;;;3.10;;
17251;SDS011;8742;51.716;8.790;2022-12-18T02:09:55;5.57;;;2.60;;
17251;SDS011;8742;51.716;8.790;2022-12-18T02:12:27;4.27;;;2.47;;
17251;SDS011;8742;51.716;8.790;2022-12-18T02:15:00;12.17;;;3.63;;
17251;SDS011;8742;51.716;8.790;2022-12-18T02:17:35;7.77;;;3.43;;
17251;SDS011;8742;51.716;8.790;2022-12-18T02:20:08;8.13;;;2.70;;
17251;SDS011;8742;51.716;8.790;2022-12-18T02:22:43;6.87;;;2.90;;
17251;SDS011;8742;51.716;8.790;2022-12-18T02:25:21;6.10;;;3.30;;
17251;SDS011;8742;51.716;8.790;2022-12-18T02:27:57;6.23;;;3.27;;
17251;SDS011;8742;51.716;8.790;2022-12-18T02:30:26;13.83;;;4.03;;
17251;SDS011;8742;51.716;8.790;2022-12-18T02:32:55;6.60;;;3.10;;
17251;SDS011;8742;51.716;8.790;2022-12-18T02:35:24;3.97;;;2.53;;
17251;SDS011;8742;51.716;8.790;2022-12-18T02:37:54;6.90;;;3.80;;
17251;SDS011;8742;51.716;8.790;2022-12-18T02:40:23;7.27;;;3.70;;
17251;SDS011;8742;51.716;8.790;2022-12-18T02:42:52;10.47;;;3.60;;
17251;SDS011;8742;51.716;8.790;2022-12-18T02:45:20;5.90;;;3.50;;
17251;SDS011;8742;51.716;8.790;2022-12-18T02:47:48;7.53;;;3.83;;
17251;SDS011;8742;51.716;8.790;2022-12-18T02:50:17;6.60;;;3.70;;
17251;SDS011;8742;51.716;8.790;2022-12-18T02:52:52;7.00;;;3.63;;
17251;SDS011;8742;51.716;8.790;2022-12-18T02:55:35;7.23;;;3.67;;
17251;SDS011;8742;51.716;8.790;2022-12-18T02:58:11;4.63;;;2.87;;
17251;SDS011;8742;51.716;8.790;2022-12-18T03:00:46;8.70;;;3.63;;
17251;SDS011;8742;51.716;8.790;2022-12-18T03:03:18;6.17;;;3.17;;
17251;SDS011;8742;51.716;8.790;2022-12-18T03:05:52;7.00;;;3.10;;
17251;SDS011;8742;51.716;8.790;2022-12-18T03:08:24;5.97;;;3.07;;
17251;SDS011;8742;51.716;8.790;2022-12-18T03:10:55;10.23;;;4.27;;
17251;SDS011;8742;51.716;8.790;2022-12-18T03:13:27;5.80;;;3.27;;
17251;SDS011;8742;51.716;8.790;2022-12-18T03:15:59;6.87;;;3.20;;
17251;SDS011;8742;51.716;8.790;2022-12-18T03:18:29;6.47;;;2.57;;
17251;SDS011;8742;51.716;8.790;2022-12-18T03:21:02;6.70;;;3.47;;
17251;SDS011;8742;51.716;8.790;2022-12-18T03:23:32;6.97;;;3.40;;
17251;SDS011;8742;51.716;8.790;2022-12-18T03:26:03;13.87;;;4.13;;
17251;SDS011;8742;51.716;8.790;2022-12-18T03:28:34;5.87;;;3.10;;
17251;SDS011;8742;51.716;8.790;2022-12-18T03:31:05;8.23;;;3.97;;
17251;SDS011;8742;51.716;8.790;2022-12-18T03:33:37;7.80;;;3.53;;
17251;SDS011;8742;51.716;8.790;2022-12-18T03:36:07;4.83;;;2.43;;
17251;SDS011;8742;51.716;8.790;2022-12-18T03:38:34;9.83;;;4.07;;
17251;SDS011;8742;51.716;8.790;2022-12-18T03:41:03;9.57;;;4.10;;
17251;SDS011;8742;51.716;8.790;2022-12-18T03:43:39;7.57;;;3.37;;
17251;SDS011;8742;51.716;8.790;2022-12-18T03:46:17;5.67;;;3.47;;
17251;SDS011;8742;51.716;8.790;2022-12-18T03:48:52;8.43;;;4.00;;
17251;SDS011;8742;51.716;8.790;2022-12-18T03:51:26;11.17;;;4.67;;
17251;SDS011;8742;51.716;8.790;2022-12-18T03:54:00;9.20;;;3.60;;
17251;SDS011;8742;51.716;8.790;2022-12-18T03:56:30;9.10;;;4.57;;
17251;SDS011;8742;51.716;8.790;2022-12-18T03:59:03;8.23;;;3.70;;
17251;SDS011;8742;51.716;8.790;2022-12-18T04:01:33;10.20;;;3.57;;
17251;SDS011;8742;51.716;8.790;2022-12-18T04:04:02;11.60;;;4.53;;
17251;SDS011;8742;51.716;8.790;2022-12-18T04:06:30;10.03;;;4.73;;
17251;SDS011;8742;51.716;8.790;2022-12-18T04:08:58;7.33;;;4.20;;
17251;SDS011;8742;51.716;8.790;2022-12-18T04:11:26;9.10;;;3.93;;
17251;SDS011;8742;51.716;8.790;2022-12-18T04:13:56;7.03;;;3.40;;
17251;SDS011;8742;51.716;8.790;2022-12-18T04:16:23;10.73;;;4.90;;
17251;SDS011;8742;51.716;8.790;2022-12-18T04:18:52;8.17;;;4.10;;
17251;SDS011;8742;51.716;8.790;2022-12-18T04:21:19;10.83;;;4.87;;
17251;SDS011;8742;51.716;8.790;2022-12-18T04:23:46;8.67;;;4.70;;
17251;SDS011;8742;51.716;8.790;2022-12-18T04:26:13;12.17;;;5.83;;
17251;SDS011;8742;51.716;8.790;2022-12-18T04:28:40;11.60;;;3.83;;
17251;SDS011;8742;51.716;8.790;2022-12-18T04:31:07;11.90;;;4.23;;
17251;SDS011;8742;51.716;8.790;2022-12-18T04:33:33;12.73;;;5.43;;
17251;SDS011;8742;51.716;8.790;2022-12-18T04:36:02;11.70;;;5.80;;
17251;SDS011;8742;51.716;8.790;2022-12-18T04:38:29;11.80;;;4.67;;
17251;SDS011;8742;51.716;8.790;2022-12-18T04:40:56;9.93;;;4.57;;
17251;SDS011;8742;51.716;8.790;2022-12-18T04:43:22;13.00;;;5.03;;
17251;SDS011;8742;51.716;8.790;2022-12-18T04:45:49;13.43;;;5.50;;
17251;SDS011;8742;51.716;8.790;2022-12-18T04:48:16;12.13;;;5.13;;
17251;SDS011;8742;51.716;8.790;2022-12-18T04:50:43;13.07;;;5.53;;
17251;SDS011;8742;51.716;8.790;2022-12-18T04:53:11;13.97;;;5.47;;
17251;SDS011;8742;51.716;8.790;2022-12-18T04:55:38;13.27;;;5.60;;
17251;SDS011;8742;51.716;8.790;2022-12-18T04:58:05;11.93;;;5.30;;
17251;SDS011;8742;51.716;8.790;2022-12-18T05:00:32;13.30;;;5.23;;
17251;SDS011;8742;51.716;8.790;2022-12-18T05:03:00;16.67;;;6.10;;
17251;SDS011;8742;51.716;8.790;2022-12-18T05:05:27;12.83;;;5.10;;
17251;SDS011;8742;51.716;8.790;2022-12-18T05:07:54;13.83;;;4.97;;
17251;SDS011;8742;51.716;8.790;2022-12-18T05:10:22;9.40;;;4.30;;
17251;SDS011;8742;51.716;8.790;2022-12-18T05:12:49;7.80;;;4.00;;
17251;SDS011;8742;51.716;8.790;2022-12-18T05:15:26;14.00;;;5.17;;
17251;SDS011;8742;51.716;8.790;2022-12-18T05:17:54;13.87;;;5.27;;
17251;SDS011;8742;51.716;8.790;2022-12-18T05:20:21;9.53;;;4.97;;
17251;SDS011;8742;51.716;8.790;2022-12-18T05:22:48;8.93;;;4.40;;
17251;SDS011;8742;51.716;8.790;2022-12-18T05:25:15;6.70;;;3.50;;
17251;SDS011;8742;51.716;8.790;2022-12-18T05:27:43;8.53;;;4.17;;
17251;SDS011;8742;51.716;8.790;2022-12-18T05:30:10;8.40;;;3.93;;
17251;SDS011;8742;51.716;8.790;2022-12-18T05:32:38;11.17;;;4.93;;
17251;SDS011;8742;51.716;8.790;2022-12-18T05:35:06;11.33;;;4.90;;
17251;SDS011;8742;51.716;8.790;2022-12-18T05:37:35;10.70;;;5.47;;
17251;SDS011;8742;51.716;8.790;2022-12-18T05:40:02;15.27;;;5.20;;
17251;SDS011;8742;51.716;8.790;2022-12-18T05:42:30;11.80;;;3.40;;
17251;SDS011;8742;51.716;8.790;2022-12-18T05:44:58;8.23;;;4.67;;
17251;SDS011;8742;51.716;8.790;2022-12-18T05:47:26;14.57;;;5.13;;
17251;SDS011;8742;51.716;8.790;2022-12-18T05:49:53;9.07;;;4.43;;
17251;SDS011;8742;51.716;8.790;2022-12-18T05:52:20;9.60;;;4.20;;
17251;SDS011;8742;51.716;8.790;2022-12-18T05:54:47;10.20;;;4.30;;
17251;SDS011;8742;51.716;8.790;2022-12-18T05:57:13;10.80;;;4.60;;
17251;SDS011;8742;51.716;8.790;2022-12-18T05:59:40;12.00;;;4.97;;
17251;SDS011;8742;51.716;8.790;2022-12-18T06:02:09;8.80;;;4.33;;
17251;SDS011;8742;51.716;8.790;2022-12-18T06:04:35;8.73;;;3.67;;
17251;SDS011;8742;51.716;8.790;2022-12-18T06:07:02;11.37;;;5.20;;
17251;SDS011;8742;51.716;8.790;2022-12-18T06:09:29;7.67;;;3.53;;
17251;SDS011;8742;51.716;8.790;2022-12-18T06:11:57;10.27;;;4.13;;
17251;SDS011;8742;51.716;8.790;2022-12-18T06:14:23;11.43;;;4.57;;
17251;SDS011;8742;51.716;8.790;2022-12-18T06:16:50;8.23;;;3.77;;
17251;SDS011;8742;51.716;8.790;2022-12-18T06:19:18;10.97;;;4.40;;
17251;SDS011;8742;51.716;8.790;2022-12-18T06:21:45;9.37;;;4.50;;
17251;SDS011;8742;51.716;8.790;2022-12-18T06:24:12;4.97;;;3.27;;
17251;SDS011;8742;51.716;8.790;2022-12-18T06:26:39;6.63;;;3.60;;
17251;SDS011;8742;51.716;8.790;2022-12-18T06:29:06;7.33;;;3.83;;
17251;SDS011;8742;51.716;8.790;2022-12-18T06:31:33;10.63;;;4.60;;
17251;SDS011;8742;51.716;8.790;2022-12-18T06:34:01;9.73;;;3.80;;
17251;SDS011;8742;51.716;8.790;2022-12-18T06:36:30;8.67;;;4.40;;
17251;SDS011;8742;51.716;8.790;2022-12-18T06:38:57;10.30;;;3.93;;
17251;SDS011;8742;51.716;8.790;2022-12-18T06:41:24;9.23;;;4.73;;
17251;SDS011;8742;51.716;8.790;2022-12-18T06:43:51;13.53;;;5.33;;
17251;SDS011;8742;51.716;8.790;2022-12-18T06:46:18;12.50;;;5.07;;
17251;SDS011;8742;51.716;8.790;2022-12-18T06:48:46;14.60;;;5.23;;
17251;SDS011;8742;51.716;8.790;2022-12-18T06:51:15;12.73;;;4.63;;
17251;SDS011;8742;51.716;8.790;2022-12-18T06:53:45;10.70;;;4.50;;
17251;SDS011;8742;51.716;8.790;2022-12-18T06:56:11;8.50;;;4.10;;
17251;SDS011;8742;51.716;8.790;2022-12-18T06:58:38;10.70;;;4.60;;
17251;SDS011;8742;51.716;8.790;2022-12-18T07:01:06;8.27;;;4.03;;
17251;SDS011;8742;51.716;8.790;2022-12-18T07:03:35;5.80;;;3.53;;
17251;SDS011;8742;51.716;8.790;2022-12-18T07:06:02;8.17;;;4.23;;
17251;SDS011;8742;51.716;8.790;2022-12-18T07:08:29;6.07;;;3.47;;
17251;SDS011;8742;51.716;8.790;2022-12-18T07:10:58;9.23;;;3.90;;
17251;SDS011;8742;51.716;8.790;2022-12-18T07:13:25;6.97;;;3.80;;
17251;SDS011;8742;51.716;8.790;2022-12-18T07:15:51;7.27;;;3.93;;
17251;SDS011;8742;51.716;8.790;2022-12-18T07:18:18;9.47;;;3.93;;
17251;SDS011;8742;51.716;8.790;2022-12-18T07:20:45;5.20;;;3.23;;
17251;SDS011;8742;51.716;8.790;2022-12-18T07:23:12;8.10;;;3.37;;
17251;SDS011;8742;51.716;8.790;2022-12-18T07:25:39;9.73;;;3.40;;
17251;SDS011;8742;51.716;8.790;2022-12-18T07:28:08;6.47;;;3.97;;
17251;SDS011;8742;51.716;8.790;2022-12-18T07:30:36;10.97;;;3.67;;
17251;SDS011;8742;51.716;8.790;2022-12-18T07:33:03;10.83;;;5.03;;
17251;SDS011;8742;51.716;8.790;2022-12-18T07:35:30;11.47;;;4.97;;
17251;SDS011;8742;51.716;8.790;2022-12-18T07:37:58;14.03;;;6.00;;
17251;SDS011;8742;51.716;8.790;2022-12-18T07:40:25;11.03;;;5.10;;
17251;SDS011;8742;51.716;8.790;2022-12-18T07:42:52;13.03;;;5.37;;
17251;SDS011;8742;51.716;8.790;2022-12-18T07:45:20;11.07;;;5.50;;
17251;SDS011;8742;51.716;8.790;2022-12-18T07:47:46;14.57;;;5.17;;
17251;SDS011;8742;51.716;8.790;2022-12-18T07:50:13;11.10;;;5.27;;
17251;SDS011;8742;51.716;8.790;2022-12-18T07:52:40;11.00;;;4.90;;
17251;SDS011;8742;51.716;8.790;2022-12-18T07:55:07;13.80;;;5.97;;
17251;SDS011;8742;51.716;8.790;2022-12-18T07:57:34;10.53;;;4.77;;
17251;SDS011;8742;51.716;8.790;2022-12-18T08:00:01;12.37;;;5.93;;
17251;SDS011;8742;51.716;8.790;2022-12-18T08:02:31;9.03;;;5.60;;
17251;SDS011;8742;51.716;8.790;2022-12-18T08:04:58;21.40;;;6.73;;
17251;SDS011;8742;51.716;8.790;2022-12-18T08:07:25;17.37;;;5.60;;
17251;SDS011;8742;51.716;8.790;2022-12-18T08:09:51;14.17;;;6.57;;
17251;SDS011;8742;51.716;8.790;2022-12-18T08:12:18;12.20;;;5.57;;
17251;SDS011;8742;51.716;8.790;2022-12-18T08:14:45;16.77;;;7.30;;
17251;SDS011;8742;51.716;8.790;2022-12-18T08:17:12;18.67;;;5.77;;
17251;SDS011;8742;51.716;8.790;2022-12-18T08:19:40;12.33;;;5.03;;
17251;SDS011;8742;51.716;8.790;2022-12-18T08:22:07;11.60;;;5.47;;
17251;SDS011;8742;51.716;8.790;2022-12-18T08:24:33;8.60;;;5.00;;
17251;SDS011;8742;51.716;8.790;2022-12-18T08:27:00;13.97;;;5.40;;
17251;SDS011;8742;51.716;8.790;2022-12-18T08:29:27;15.07;;;5.77;;
17251;SDS011;8742;51.716;8.790;2022-12-18T08:31:55;11.30;;;5.23;;
17251;SDS011;8742;51.716;8.790;2022-12-18T08:34:22;15.13;;;6.17;;
17251;SDS011;8742;51.716;8.790;2022-12-18T08:36:50;16.47;;;6.57;;
17251;SDS011;8742;51.716;8.790;2022-12-18T08:39:17;15.20;;;6.33;;
17251;SDS011;8742;51.716;8.790;2022-12-18T08:41:44;10.97;;;5.13;;
17251;SDS011;8742;51.716;8.790;2022-12-18T08:44:31;9.57;;;4.43;;
17251;SDS011;8742;51.716;8.790;2022-12-18T08:47:03;10.20;;;4.10;;
17251;SDS011;8742;51.716;8.790;2022-12-18T08:49:30;5.00;;;3.07;;
17251;SDS011;8742;51.716;8.790;2022-12-18T08:51:58;9.77;;;4.47;;
17251;SDS011;8742;51.716;8.790;2022-12-18T08:54:25;9.67;;;4.63;;
17251;SDS011;8742;51.716;8.790;2022-12-18T08:56:52;9.30;;;4.90;;
17251;SDS011;8742;51.716;8.790;2022-12-18T08:59:19;14.33;;;5.77;;
17251;SDS011;8742;51.716;8.790;2022-12-18T09:01:46;11.10;;;5.80;;
17251;SDS011;8742;51.716;8.790;2022-12-18T09:04:13;9.40;;;5.60;;
17251;SDS011;8742;51.716;8.790;2022-12-18T09:06:40;11.57;;;5.13;;
17251;SDS011;8742;51.716;8.790;2022-12-18T09:09:08;13.20;;;5.67;;
17251;SDS011;8742;51.716;8.790;2022-12-18T09:11:36;11.87;;;5.60;;
17251;SDS011;8742;51.716;8.790;2022-12-18T09:14:02;11.53;;;5.30;;
17251;SDS011;8742;51.716;8.790;2022-12-18T09:16:29;11.47;;;5.40;;
17251;SDS011;8742;51.716;8.790;2022-12-18T09:19:00;12.07;;;5.80;;
17251;SDS011;8742;51.716;8.790;2022-12-18T09:21:29;12.77;;;6.03;;
17251;SDS011;8742;51.716;8.790;2022-12-18T09:23:57;11.90;;;5.27;;
17251;SDS011;8742;51.716;8.790;2022-12-18T09:26:25;13.63;;;5.60;;
17251;SDS011;8742;51.716;8.790;2022-12-18T09:28:53;11.70;;;5.23;;
17251;SDS011;8742;51.716;8.790;2022-12-18T09:31:21;7.73;;;3.40;;
17251;SDS011;8742;51.716;8.790;2022-12-18T09:33:49;8.23;;;4.10;;
17251;SDS011;8742;51.716;8.790;2022-12-18T09:36:16;8.67;;;4.57;;
17251;SDS011;8742;51.716;8.790;2022-12-18T09:38:44;10.70;;;4.30;;
17251;SDS011;8742;51.716;8.790;2022-12-18T09:41:16;12.17;;;4.90;;
17251;SDS011;8742;51.716;8.790;2022-12-18T09:43:57;8.93;;;3.33;;
17251;SDS011;8742;51.716;8.790;2022-12-18T09:46:28;8.30;;;4.37;;
17251;SDS011;8742;51.716;8.790;2022-12-18T09:48:58;8.13;;;3.57;;
17251;SDS011;8742;51.716;8.790;2022-12-18T09:51:28;11.27;;;4.70;;
17251;SDS011;8742;51.716;8.790;2022-12-18T09:54:01;7.50;;;4.10;;
17251;SDS011;8742;51.716;8.790;2022-12-18T09:56:35;8.07;;;3.40;;
17251;SDS011;8742;51.716;8.790;2022-12-18T09:59:12;9.07;;;4.10;;
17251;SDS011;8742;51.716;8.790;2022-12-18T10:01:46;13.10;;;4.57;;
17251;SDS011;8742;51.716;8.790;2022-12-18T10:04:13;8.80;;;3.87;;
17251;SDS011;8742;51.716;8.790;2022-12-18T10:06:42;8.27;;;4.30;;
17251;SDS011;8742;51.716;8.790;2022-12-18T10:09:15;9.27;;;3.47;;
17251;SDS011;8742;51.716;8.790;2022-12-18T10:11:54;7.73;;;4.03;;
17251;SDS011;8742;51.716;8.790;2022-12-18T10:14:29;6.80;;;4.00;;
17251;SDS011;8742;51.716;8.790;2022-12-18T10:17:03;7.57;;;4.30;;
17251;SDS011;8742;51.716;8.790;2022-12-18T10:19:41;5.00;;;3.40;;
17251;SDS011;8742;51.716;8.790;2022-12-18T10:22:18;8.57;;;4.17;;
17251;SDS011;8742;51.716;8.790;2022-12-18T10:24:53;8.33;;;4.33;;
17251;SDS011;8742;51.716;8.790;2022-12-18T10:27:26;9.10;;;4.17;;
17251;SDS011;8742;51.716;8.790;2022-12-18T10:29:55;5.00;;;3.30;;
17251;SDS011;8742;51.716;8.790;2022-12-18T10:32:24;5.40;;;3.67;;
17251;SDS011;8742;51.716;8.790;2022-12-18T10:34:54;5.17;;;3.70;;
17251;SDS011;8742;51.716;8.790;2022-12-18T10:37:24;6.87;;;3.60;;
17251;SDS011;8742;51.716;8.790;2022-12-18T10:40:05;10.70;;;3.90;;
17251;SDS011;8742;51.716;8.790;2022-12-18T10:42:37;8.43;;;4.53;;
17251;SDS011;8742;51.716;8.790;2022-12-18T10:45:09;6.97;;;3.33;;
17251;SDS011;8742;51.716;8.790;2022-12-18T10:47:41;7.87;;;4.00;;
17251;SDS011;8742;51.716;8.790;2022-12-18T10:50:16;7.57;;;4.00;;
17251;SDS011;8742;51.716;8.790;2022-12-18T10:52:52;6.27;;;3.17;;
17251;SDS011;8742;51.716;8.790;2022-12-18T10:55:20;8.70;;;4.27;;
17251;SDS011;8742;51.716;8.790;2022-12-18T10:57:47;6.30;;;3.77;;
17251;SDS011;8742;51.716;8.790;2022-12-18T11:00:23;7.73;;;4.43;;
17251;SDS011;8742;51.716;8.790;2022-12-18T11:02:52;5.60;;;3.50;;
17251;SDS011;8742;51.716;8.790;2022-12-18T11:05:28;7.33;;;4.57;;
17251;SDS011;8742;51.716;8.790;2022-12-18T11:07:56;6.23;;;3.97;;
17251;SDS011;8742;51.716;8.790;2022-12-18T11:10:26;15.57;;;4.33;;
17251;SDS011;8742;51.716;8.790;2022-12-18T11:12:57;7.93;;;4.10;;
17251;SDS011;8742;51.716;8.790;2022-12-18T11:15:39;7.93;;;2.93;;
17251;SDS011;8742;51.716;8.790;2022-12-18T11:18:14;9.87;;;4.33;;
17251;SDS011;8742;51.716;8.790;2022-12-18T11:20:50;7.90;;;3.97;;
17251;SDS011;8742;51.716;8.790;2022-12-18T11:23:18;6.43;;;3.80;;
17251;SDS011;8742;51.716;8.790;2022-12-18T11:25:50;8.63;;;4.40;;
17251;SDS011;8742;51.716;8.790;2022-12-18T11:28:29;7.83;;;3.70;;
17251;SDS011;8742;51.716;8.790;2022-12-18T11:31:11;7.50;;;3.63;;
17251;SDS011;8742;51.716;8.790;2022-12-18T11:33:57;8.23;;;4.10;;
17251;SDS011;8742;51.716;8.790;2022-12-18T11:36:32;11.30;;;3.83;;
17251;SDS011;8742;51.716;8.790;2022-12-18T11:39:03;8.07;;;4.57;;
17251;SDS011;8742;51.716;8.790;2022-12-18T11:41:37;9.13;;;3.73;;
17251;SDS011;8742;51.716;8.790;2022-12-18T11:44:26;6.97;;;4.20;;
17251;SDS011;8742;51.716;8.790;2022-12-18T11:46:59;6.53;;;3.80;;
17251;SDS011;8742;51.716;8.790;2022-12-18T11:49:31;5.57;;;3.33;;
17251;SDS011;8742;51.716;8.790;2022-12-18T11:52:00;9.63;;;4.20;;
17251;SDS011;8742;51.716;8.790;2022-12-18T11:54:31;8.67;;;4.00;;
17251;SDS011;8742;51.716;8.790;2022-12-18T11:56:58;8.33;;;4.17;;
17251;SDS011;8742;51.716;8.790;2022-12-18T11:59:33;8.57;;;4.40;;
17251;SDS011;8742;51.716;8.790;2022-12-18T12:02:17;12.77;;;4.33;;
17251;SDS011;8742;51.716;8.790;2022-12-18T12:05:03;8.77;;;4.43;;
17251;SDS011;8742;51.716;8.790;2022-12-18T12:07:42;11.30;;;4.47;;
17251;SDS011;8742;51.716;8.790;2022-12-18T12:10:22;10.37;;;3.83;;
17251;SDS011;8742;51.716;8.790;2022-12-18T12:13:08;10.77;;;4.40;;
17251;SDS011;8742;51.716;8.790;2022-12-18T12:15:51;8.53;;;4.07;;
17251;SDS011;8742;51.716;8.790;2022-12-18T12:18:31;13.20;;;4.17;;
17251;SDS011;8742;51.716;8.790;2022-12-18T12:21:12;6.10;;;3.43;;
17251;SDS011;8742;51.716;8.790;2022-12-18T12:23:47;9.10;;;3.80;;
17251;SDS011;8742;51.716;8.790;2022-12-18T12:26:18;7.23;;;4.40;;
17251;SDS011;8742;51.716;8.790;2022-12-18T12:28:55;12.40;;;4.40;;
17251;SDS011;8742;51.716;8.790;2022-12-18T12:31:41;8.00;;;4.03;;
17251;SDS011;8742;51.716;8.790;2022-12-18T12:34:21;9.00;;;4.30;;
17251;SDS011;8742;51.716;8.790;2022-12-18T12:36:55;6.83;;;3.90;;
17251;SDS011;8742;51.716;8.790;2022-12-18T12:39:34;8.57;;;3.57;;
17251;SDS011;8742;51.716;8.790;2022-12-18T12:42:04;7.70;;;3.97;;
17251;SDS011;8742;51.716;8.790;2022-12-18T12:44:55;4.57;;;2.13;;
17251;SDS011;8742;51.716;8.790;2022-12-18T12:47:25;6.60;;;3.77;;
17251;SDS011;8742;51.716;8.790;2022-12-18T12:49:57;4.97;;;3.40;;
17251;SDS011;8742;51.716;8.790;2022-12-18T12:52:28;8.77;;;4.00;;
17251;SDS011;8742;51.716;8.790;2022-12-18T12:55:01;6.50;;;3.67;;
17251;SDS011;8742;51.716;8.790;2022-12-18T12:57:33;6.60;;;3.97;;
17251;SDS011;8742;51.716;8.790;2022-12-18T13:00:05;7.23;;;3.70;;
17251;SDS011;8742;51.716;8.790;2022-12-18T13:02:37;7.93;;;3.67;;
17251;SDS011;8742;51.716;8.790;2022-12-18T13:05:15;7.10;;;3.93;;
17251;SDS011;8742;51.716;8.790;2022-12-18T13:07:47;8.83;;;3.77;;
17251;SDS011;8742;51.716;8.790;2022-12-18T13:10:26;6.73;;;3.73;;
17251;SDS011;8742;51.716;8.790;2022-12-18T13:12:59;6.70;;;3.73;;
17251;SDS011;8742;51.716;8.790;2022-12-18T13:15:31;6.87;;;3.83;;
17251;SDS011;8742;51.716;8.790;2022-12-18T13:18:04;8.67;;;3.70;;
17251;SDS011;8742;51.716;8.790;2022-12-18T13:20:47;6.60;;;3.57;;
17251;SDS011;8742;51.716;8.790;2022-12-18T13:23:20;4.93;;;2.80;;
17251;SDS011;8742;51.716;8.790;2022-12-18T13:25:54;6.27;;;3.50;;
17251;SDS011;8742;51.716;8.790;2022-12-18T13:28:21;6.83;;;3.80;;
17251;SDS011;8742;51.716;8.790;2022-12-18T13:30:54;6.37;;;3.60;;
17251;SDS011;8742;51.716;8.790;2022-12-18T13:33:38;8.67;;;4.50;;
17251;SDS011;8742;51.716;8.790;2022-12-18T13:36:12;7.53;;;3.60;;
17251;SDS011;8742;51.716;8.790;2022-12-18T13:45:40;8.10;;;3.97;;
17251;SDS011;8742;51.716;8.790;2022-12-18T13:50:57;10.93;;;4.27;;
17251;SDS011;8742;51.716;8.790;2022-12-18T13:53:29;7.53;;;3.97;;
17251;SDS011;8742;51.716;8.790;2022-12-18T13:56:00;7.90;;;3.97;;
17251;SDS011;8742;51.716;8.790;2022-12-18T13:58:27;7.73;;;4.17;;
17251;SDS011;8742;51.716;8.790;2022-12-18T14:00:54;7.93;;;3.83;;
17251;SDS011;8742;51.716;8.790;2022-12-18T14:03:22;5.53;;;3.47;;
17251;SDS011;8742;51.716;8.790;2022-12-18T14:05:53;6.70;;;3.77;;
17251;SDS011;8742;51.716;8.790;2022-12-18T14:08:22;7.17;;;3.40;;
17251;SDS011;8742;51.716;8.790;2022-12-18T14:10:52;9.40;;;3.33;;
17251;SDS011;8742;51.716;8.790;2022-12-18T14:13:20;5.90;;;3.53;;
17251;SDS011;8742;51.716;8.790;2022-12-18T14:15:50;5.00;;;3.40;;
17251;SDS011;8742;51.716;8.790;2022-12-18T14:18:19;14.97;;;4.20;;
17251;SDS011;8742;51.716;8.790;2022-12-18T14:20:49;11.60;;;4.73;;
17251;SDS011;8742;51.716;8.790;2022-12-18T14:23:30;9.13;;;4.20;;
17251;SDS011;8742;51.716;8.790;2022-12-18T14:26:00;11.90;;;4.87;;
17251;SDS011;8742;51.716;8.790;2022-12-18T14:28:28;8.87;;;4.03;;
17251;SDS011;8742;51.716;8.790;2022-12-18T14:30:55;7.03;;;3.93;;
17251;SDS011;8742;51.716;8.790;2022-12-18T14:33:23;6.73;;;3.60;;
17251;SDS011;8742;51.716;8.790;2022-12-18T14:35:57;9.47;;;4.10;;
17251;SDS011;8742;51.716;8.790;2022-12-18T14:38:27;10.70;;;5.23;;
17251;SDS011;8742;51.716;8.790;2022-12-18T14:40:56;10.97;;;4.90;;
17251;SDS011;8742;51.716;8.790;2022-12-18T14:43:25;9.37;;;4.90;;
17251;SDS011;8742;51.716;8.790;2022-12-18T14:45:53;12.90;;;4.50;;
17251;SDS011;8742;51.716;8.790;2022-12-18T14:48:21;10.20;;;4.33;;
17251;SDS011;8742;51.716;8.790;2022-12-18T14:50:54;13.70;;;4.97;;
17251;SDS011;8742;51.716;8.790;2022-12-18T14:53:23;8.03;;;3.97;;
17251;SDS011;8742;51.716;8.790;2022-12-18T14:56:01;7.10;;;3.93;;
17251;SDS011;8742;51.716;8.790;2022-12-18T14:58:30;11.60;;;4.57;;
17251;SDS011;8742;51.716;8.790;2022-12-18T15:00:57;13.67;;;6.40;;
17251;SDS011;8742;51.716;8.790;2022-12-18T15:03:24;14.77;;;4.97;;
17251;SDS011;8742;51.716;8.790;2022-12-18T15:05:51;8.73;;;4.37;;
17251;SDS011;8742;51.716;8.790;2022-12-18T15:08:27;7.93;;;5.03;;
17251;SDS011;8742;51.716;8.790;2022-12-18T15:11:01;9.33;;;4.67;;
17251;SDS011;8742;51.716;8.790;2022-12-18T15:13:28;11.33;;;5.10;;
17251;SDS011;8742;51.716;8.790;2022-12-18T15:15:57;9.80;;;4.63;;
17251;SDS011;8742;51.716;8.790;2022-12-18T15:18:29;12.00;;;4.90;;
17251;SDS011;8742;51.716;8.790;2022-12-18T15:20:59;12.60;;;5.97;;
17251;SDS011;8742;51.716;8.790;2022-12-18T15:23:35;11.83;;;4.40;;